createdAt,value
2023-01-21T00:01:04.080Z,22.07
2023-01-21T00:03:30.472Z,25.80
2023-01-21T00:05:58.405Z,22.65
2023-01-21T00:08:24.723Z,21.93
2023-01-21T00:10:51.133Z,20.12
2023-01-21T00:13:17.460Z,23.67
2023-01-21T00:15:43.778Z,23.10
2023-01-21T00:18:10.079Z,27.33
2023-01-21T00:20:36.453Z,27.47
2023-01-21T00:23:02.775Z,26.97
2023-01-21T00:25:29.114Z,23.90
2023-01-21T00:27:55.511Z,24.87
2023-01-21T00:30:21.842Z,24.50
2023-01-21T00:32:48.161Z,21.20
2023-01-21T00:35:14.512Z,24.98
2023-01-21T00:37:40.833Z,27.73
2023-01-21T00:40:07.142Z,23.63
2023-01-21T00:42:37.525Z,24.67
2023-01-21T00:45:03.834Z,28.58
2023-01-21T00:47:30.145Z,28.35
2023-01-21T00:49:56.659Z,25.20
2023-01-21T00:52:22.967Z,30.02
2023-01-21T00:54:49.281Z,29.90
2023-01-21T00:57:16.310Z,29.30
2023-01-21T00:59:42.807Z,30.53
2023-01-21T01:02:09.132Z,25.03
2023-01-21T01:04:35.451Z,25.93
2023-01-21T01:07:01.755Z,20.73
2023-01-21T01:09:28.054Z,29.67
2023-01-21T01:11:54.423Z,28.33
2023-01-21T01:14:20.741Z,29.70
2023-01-21T01:16:47.065Z,28.10
2023-01-21T01:19:13.423Z,28.33
2023-01-21T01:21:39.784Z,26.53
2023-01-21T01:24:06.319Z,30.80
2023-01-21T01:26:32.616Z,30.07
2023-01-21T01:28:58.953Z,31.10
2023-01-21T01:31:25.314Z,34.60
2023-01-21T01:33:51.689Z,32.37
2023-01-21T01:36:17.997Z,32.80
2023-01-21T01:38:44.368Z,36.08
2023-01-21T01:41:10.855Z,33.03
2023-01-21T01:43:37.188Z,35.00
2023-01-21T01:46:03.553Z,31.73
2023-01-21T01:48:29.961Z,32.20
2023-01-21T01:50:56.301Z,28.03
2023-01-21T01:53:22.652Z,36.07
2023-01-21T01:55:48.990Z,27.95
2023-01-21T01:58:15.521Z,30.80
2023-01-21T02:00:41.836Z,32.53
2023-01-21T02:03:27.016Z,34.90
2023-01-21T02:05:53.364Z,35.77
2023-01-21T02:08:19.693Z,33.83
2023-01-21T02:10:46.053Z,33.70
2023-01-21T02:13:12.374Z,35.43
2023-01-21T02:15:38.731Z,38.83
2023-01-21T02:18:05.053Z,38.13
2023-01-21T02:20:31.384Z,34.13
2023-01-21T02:22:57.715Z,32.87
2023-01-21T02:25:24.048Z,32.60
2023-01-21T02:27:50.355Z,35.37
2023-01-21T02:30:16.991Z,31.57
2023-01-21T02:32:43.523Z,29.90
2023-01-21T02:35:09.847Z,35.43
2023-01-21T02:37:36.237Z,34.50
2023-01-21T02:40:02.582Z,34.97
2023-01-21T02:42:28.915Z,33.77
2023-01-21T02:44:55.313Z,32.53
2023-01-21T02:47:21.649Z,35.03
2023-01-21T02:49:48.065Z,34.70
2023-01-21T02:52:14.380Z,37.07
2023-01-21T02:54:40.736Z,30.30
2023-01-21T02:57:07.093Z,34.57
2023-01-21T02:59:33.452Z,33.50
2023-01-21T03:01:59.810Z,30.43
2023-01-21T03:04:26.155Z,30.03
2023-01-21T03:06:52.490Z,28.50
2023-01-21T03:09:18.950Z,29.03
2023-01-21T03:11:45.324Z,28.87
2023-01-21T03:14:30.583Z,25.43
2023-01-21T03:16:56.974Z,24.47
2023-01-21T03:19:23.329Z,22.10
2023-01-21T03:21:49.627Z,24.77
2023-01-21T03:24:15.931Z,26.07
2023-01-21T03:26:42.255Z,23.83
2023-01-21T03:29:08.663Z,23.73
2023-01-21T03:31:35.033Z,21.53
2023-01-21T03:34:01.532Z,22.13
2023-01-21T03:36:27.878Z,24.60
2023-01-21T03:38:54.186Z,25.20
2023-01-21T03:41:20.506Z,25.80
2023-01-21T03:43:46.826Z,25.03
2023-01-21T03:46:13.197Z,21.63
2023-01-21T03:48:39.535Z,25.27
2023-01-21T03:51:05.905Z,21.20
2023-01-21T03:53:32.370Z,22.17
2023-01-21T03:56:00.051Z,23.10
2023-01-21T03:58:26.393Z,22.83
2023-01-21T04:00:52.727Z,20.10
2023-01-21T04:03:19.156Z,21.13
2023-01-21T04:05:45.505Z,21.27
2023-01-21T04:08:11.933Z,23.07
2023-01-21T04:10:38.274Z,19.07
2023-01-21T04:13:04.614Z,24.37
2023-01-21T04:15:30.927Z,19.27
2023-01-21T04:17:57.255Z,17.77
2023-01-21T04:20:23.552Z,20.60
2023-01-21T04:22:49.923Z,19.40
2023-01-21T04:25:16.251Z,22.03
2023-01-21T04:27:42.575Z,22.27
2023-01-21T04:30:09.044Z,22.70
2023-01-21T04:32:37.294Z,20.27
2023-01-21T04:35:03.651Z,26.43
2023-01-21T04:37:30.065Z,21.50
2023-01-21T04:39:56.386Z,25.80
2023-01-21T04:42:22.714Z,17.03
2023-01-21T04:44:49.085Z,26.17
2023-01-21T04:47:15.398Z,28.83
2023-01-21T04:49:41.744Z,28.03
2023-01-21T04:52:08.071Z,22.43
2023-01-21T04:54:34.388Z,23.67
2023-01-21T04:57:00.776Z,25.15
2023-01-21T04:59:27.089Z,24.53
2023-01-21T05:01:53.425Z,28.17
2023-01-21T05:04:19.735Z,19.43
2023-01-21T05:06:46.070Z,21.17
2023-01-21T05:09:12.413Z,19.00
2023-01-21T05:11:38.816Z,21.43
2023-01-21T05:14:05.161Z,18.93
2023-01-21T05:16:31.496Z,21.80
2023-01-21T05:18:57.860Z,20.23
2023-01-21T05:21:24.222Z,17.00
2023-01-21T05:23:50.546Z,17.57
2023-01-21T05:26:16.856Z,16.93
2023-01-21T05:28:43.190Z,16.80
2023-01-21T05:31:09.647Z,21.10
2023-01-21T05:33:36.005Z,19.30
2023-01-21T05:36:02.372Z,20.80
2023-01-21T05:38:28.703Z,21.93
2023-01-21T05:40:55.013Z,23.60
2023-01-21T05:43:21.380Z,16.33
2023-01-21T05:45:47.717Z,26.43
2023-01-21T05:48:14.034Z,23.57
2023-01-21T05:50:40.349Z,25.07
2023-01-21T05:53:06.693Z,23.57
2023-01-21T05:55:32.995Z,23.03
2023-01-21T05:57:59.295Z,27.17
2023-01-21T06:00:25.630Z,24.50
2023-01-21T06:02:51.948Z,25.60
2023-01-21T06:05:18.351Z,30.83
2023-01-21T06:07:44.706Z,35.77
2023-01-21T06:10:11.019Z,32.93
2023-01-21T06:12:37.387Z,31.33
2023-01-21T06:15:03.708Z,27.77
2023-01-21T06:17:30.022Z,33.53
2023-01-21T06:19:56.370Z,32.23
2023-01-21T06:22:22.759Z,29.33
2023-01-21T06:24:49.066Z,31.80
2023-01-21T06:27:15.428Z,31.70
2023-01-21T06:29:41.779Z,31.83
2023-01-21T06:32:08.194Z,38.53
2023-01-21T06:34:34.540Z,32.80
2023-01-21T06:37:00.863Z,30.83
2023-01-21T06:39:27.178Z,32.90
2023-01-21T06:41:55.250Z,27.77
2023-01-21T06:44:21.846Z,18.80
2023-01-21T06:47:00.187Z,28.57
2023-01-21T06:49:26.892Z,26.53
2023-01-21T06:51:53.255Z,28.30
2023-01-21T06:54:19.670Z,27.13
2023-01-21T06:56:46.062Z,23.50
2023-01-21T06:59:12.434Z,23.12
2023-01-21T07:01:38.801Z,24.63
2023-01-21T07:04:05.158Z,23.10
2023-01-21T07:06:31.471Z,23.87
2023-01-21T07:08:57.778Z,22.03
2023-01-21T07:11:24.079Z,23.17
2023-01-21T07:13:50.376Z,18.93
2023-01-21T07:16:16.759Z,19.70
2023-01-21T07:18:43.107Z,22.33
2023-01-21T07:21:09.433Z,23.70
2023-01-21T07:23:36.040Z,22.30
2023-01-21T07:26:02.417Z,23.57
2023-01-21T07:28:28.727Z,23.27
2023-01-21T07:30:55.145Z,26.47
2023-01-21T07:33:21.483Z,24.90
2023-01-21T07:35:47.789Z,23.67
2023-01-21T07:38:14.151Z,22.37
2023-01-21T07:40:40.477Z,21.10
2023-01-21T07:43:06.847Z,22.93
2023-01-21T07:45:36.249Z,24.23
2023-01-21T07:48:02.657Z,21.93
2023-01-21T07:50:28.989Z,20.60
2023-01-21T07:52:55.419Z,23.80
2023-01-21T07:55:21.747Z,22.60
2023-01-21T07:57:48.061Z,22.37
2023-01-21T08:00:14.395Z,24.33
2023-01-21T08:02:40.768Z,24.70
2023-01-21T08:05:07.145Z,21.37
2023-01-21T08:07:33.466Z,24.33
2023-01-21T08:09:59.843Z,20.67
2023-01-21T08:12:27.324Z,24.20
2023-01-21T08:14:53.739Z,22.13
2023-01-21T08:17:20.291Z,25.47
2023-01-21T08:19:46.663Z,23.23
2023-01-21T08:22:12.993Z,24.27
2023-01-21T08:24:39.373Z,22.23
2023-01-21T08:27:05.682Z,22.50
2023-01-21T08:29:32.111Z,21.60
2023-01-21T08:31:58.587Z,21.83
2023-01-21T08:34:25.552Z,21.57
2023-01-21T08:36:51.905Z,24.03
2023-01-21T08:39:18.369Z,21.52
2023-01-21T08:41:44.728Z,23.30
2023-01-21T08:44:11.074Z,22.40
2023-01-21T08:46:37.482Z,20.95
2023-01-21T08:49:05.162Z,20.15
2023-01-21T08:51:31.453Z,23.40
2023-01-21T08:53:57.803Z,23.43
2023-01-21T08:56:24.133Z,19.52
2023-01-21T08:58:50.442Z,19.17
2023-01-21T09:01:16.892Z,24.10
2023-01-21T09:03:43.267Z,25.67
2023-01-21T09:06:09.654Z,24.97
2023-01-21T09:08:36.607Z,24.75
2023-01-21T09:11:03.197Z,23.50
2023-01-21T09:13:29.627Z,23.65
2023-01-21T09:15:55.945Z,24.10
2023-01-21T09:18:22.288Z,23.05
2023-01-21T09:20:48.619Z,22.63
2023-01-21T09:23:24.582Z,21.17
2023-01-21T09:25:51.077Z,21.97
2023-01-21T09:28:17.420Z,20.43
2023-01-21T09:30:43.796Z,22.87
2023-01-21T09:33:10.117Z,21.03
2023-01-21T09:35:36.465Z,20.60
2023-01-21T09:38:02.794Z,20.30
2023-01-21T09:40:29.124Z,26.70
2023-01-21T09:42:55.438Z,22.80
2023-01-21T09:45:22.118Z,22.98
2023-01-21T09:47:48.464Z,20.50
2023-01-21T09:50:14.850Z,20.43
2023-01-21T09:52:41.258Z,21.20
2023-01-21T09:55:07.593Z,24.00
2023-01-21T09:57:33.915Z,20.30
2023-01-21T10:00:00.219Z,20.10
2023-01-21T10:02:26.552Z,21.75
2023-01-21T10:04:52.936Z,23.67
2023-01-21T10:07:19.295Z,20.77
2023-01-21T10:09:45.625Z,22.58
2023-01-21T10:12:12.420Z,18.65
2023-01-21T10:14:38.725Z,19.00
2023-01-21T10:17:05.045Z,24.50
2023-01-21T10:19:33.382Z,25.27
2023-01-21T10:22:00.438Z,19.52
2023-01-21T10:24:26.731Z,21.40
2023-01-21T10:26:53.087Z,20.58
2023-01-21T10:29:19.433Z,23.40
2023-01-21T10:31:45.804Z,20.57
2023-01-21T10:34:12.295Z,20.88
2023-01-21T10:36:38.632Z,19.52
2023-01-21T10:39:04.962Z,23.00
2023-01-21T10:41:31.360Z,21.80
2023-01-21T10:43:57.660Z,22.73
2023-01-21T10:46:24.100Z,20.63
2023-01-21T10:48:50.519Z,19.15
2023-01-21T10:51:16.881Z,18.55
2023-01-21T10:53:43.359Z,20.15
2023-01-21T10:56:09.672Z,21.37
2023-01-21T10:58:35.973Z,18.08
2023-01-21T11:01:02.376Z,20.33
2023-01-21T11:03:28.900Z,18.95
2023-01-21T11:05:56.277Z,18.67
2023-01-21T11:08:22.670Z,20.62
2023-01-21T11:10:48.985Z,18.87
2023-01-21T11:13:19.111Z,17.53
2023-01-21T11:15:45.478Z,20.92
2023-01-21T11:18:11.795Z,19.12
2023-01-21T11:20:38.136Z,18.77
2023-01-21T11:23:04.438Z,18.12
2023-01-21T11:25:30.791Z,17.45
2023-01-21T11:27:57.146Z,20.50
2023-01-21T11:30:40.635Z,21.77
2023-01-21T11:33:09.761Z,17.83
2023-01-21T11:35:36.064Z,20.75
2023-01-21T11:38:02.368Z,18.48
2023-01-21T11:40:28.933Z,18.80
2023-01-21T11:42:55.329Z,17.67
2023-01-21T11:45:21.632Z,18.70
2023-01-21T11:47:47.956Z,17.62
2023-01-21T11:50:14.328Z,18.70
2023-01-21T11:52:40.661Z,19.02
2023-01-21T11:55:06.977Z,18.65
2023-01-21T11:57:33.322Z,24.27
2023-01-21T11:59:59.673Z,19.95
2023-01-21T12:02:26.080Z,23.33
2023-01-21T12:04:52.446Z,20.42
2023-01-21T12:07:18.750Z,20.13
2023-01-21T12:09:45.060Z,17.98
2023-01-21T12:12:11.380Z,20.05
2023-01-21T12:14:37.691Z,20.95
2023-01-21T12:17:04.002Z,18.08
2023-01-21T12:19:30.415Z,19.50
2023-01-21T12:21:56.794Z,20.55
2023-01-21T12:24:23.124Z,18.58
2023-01-21T12:26:49.493Z,18.50
2023-01-21T12:29:16.675Z,19.52
2023-01-21T12:31:45.007Z,18.37
2023-01-21T12:34:11.392Z,15.63
2023-01-21T12:36:37.707Z,17.70
2023-01-21T12:39:04.037Z,17.52
2023-01-21T12:41:30.984Z,17.95
2023-01-21T12:43:57.293Z,18.02
2023-01-21T12:46:23.672Z,16.55
2023-01-21T12:48:50.035Z,18.37
2023-01-21T12:51:16.490Z,16.35
2023-01-21T12:53:42.834Z,16.37
2023-01-21T12:56:09.442Z,16.20
2023-01-21T12:58:35.756Z,18.05
2023-01-21T13:01:02.220Z,16.98
2023-01-21T13:03:28.564Z,16.85
2023-01-21T13:05:54.895Z,18.67
2023-01-21T13:08:21.191Z,17.52
2023-01-21T13:10:47.539Z,18.50
2023-01-21T13:13:13.867Z,22.43
2023-01-21T13:15:42.100Z,20.52
2023-01-21T13:18:08.441Z,17.83
2023-01-21T13:20:34.785Z,17.40
2023-01-21T13:23:01.118Z,18.17
2023-01-21T13:25:27.511Z,20.30
2023-01-21T13:27:53.881Z,18.90
2023-01-21T13:30:20.417Z,18.77
2023-01-21T13:32:46.794Z,15.57
2023-01-21T13:35:13.110Z,17.87
2023-01-21T13:37:39.423Z,16.55
2023-01-21T13:40:06.425Z,18.77
2023-01-21T13:42:32.820Z,19.77
2023-01-21T13:44:59.121Z,17.87
2023-01-21T13:47:27.006Z,20.73
2023-01-21T13:49:56.711Z,20.08
2023-01-21T13:52:23.073Z,21.77
2023-01-21T13:54:49.459Z,23.25
2023-01-21T13:57:15.858Z,21.80
2023-01-21T13:59:42.192Z,25.10
2023-01-21T14:02:08.548Z,22.70
2023-01-21T14:04:34.940Z,22.83
2023-01-21T14:07:01.741Z,22.10
2023-01-21T14:09:28.268Z,19.40
2023-01-21T14:11:54.610Z,23.98
2023-01-21T14:14:20.977Z,20.98
2023-01-21T14:16:47.533Z,23.17
2023-01-21T14:19:13.892Z,24.85
2023-01-21T14:21:40.217Z,21.40
2023-01-21T14:24:06.577Z,21.60
2023-01-21T14:26:33.253Z,20.90
2023-01-21T14:28:59.576Z,20.15
2023-01-21T14:31:25.970Z,18.98
2023-01-21T14:33:52.312Z,21.40
2023-01-21T14:36:18.620Z,21.83
2023-01-21T14:38:44.942Z,18.80
2023-01-21T14:41:11.250Z,20.25
2023-01-21T14:43:38.047Z,21.47
2023-01-21T14:46:04.404Z,24.52
2023-01-21T14:48:30.843Z,21.23
2023-01-21T14:50:57.215Z,20.42
2023-01-21T14:53:23.567Z,21.77
2023-01-21T14:55:53.003Z,22.55
2023-01-21T14:58:19.309Z,20.40
2023-01-21T15:00:46.068Z,20.90
2023-01-21T15:03:12.613Z,20.10
2023-01-21T15:05:39.023Z,18.23
2023-01-21T15:08:05.434Z,18.27
2023-01-21T15:10:31.794Z,15.18
2023-01-21T15:12:58.198Z,20.83
2023-01-21T15:15:24.506Z,15.60
2023-01-21T15:17:50.912Z,17.25
2023-01-21T15:20:17.226Z,15.55
2023-01-21T15:22:46.839Z,18.62
2023-01-21T15:25:13.207Z,17.45
2023-01-21T15:27:39.513Z,13.95
2023-01-21T15:30:05.869Z,17.65
2023-01-21T15:32:32.304Z,14.10
2023-01-21T15:34:58.604Z,12.73
2023-01-21T15:37:24.931Z,15.10
2023-01-21T15:39:54.413Z,16.73
2023-01-21T15:42:21.378Z,18.87
2023-01-21T15:44:48.177Z,18.40
2023-01-21T15:47:14.539Z,17.20
2023-01-21T15:49:40.910Z,18.87
2023-01-21T15:52:07.305Z,16.60
2023-01-21T15:54:33.684Z,15.38
2023-01-21T15:56:59.997Z,15.88
2023-01-21T15:59:26.405Z,20.17
2023-01-21T16:01:52.720Z,16.80
2023-01-21T16:04:19.788Z,18.08
2023-01-21T16:06:46.365Z,16.50
2023-01-21T16:09:12.722Z,16.48
2023-01-21T16:11:40.563Z,13.68
2023-01-21T16:14:06.900Z,15.53
2023-01-21T16:16:33.601Z,14.10
2023-01-21T16:18:59.921Z,14.68
2023-01-21T16:21:26.295Z,15.50
2023-01-21T16:23:52.591Z,13.17
2023-01-21T16:26:18.917Z,12.60
2023-01-21T16:28:46.540Z,11.27
2023-01-21T16:31:12.969Z,11.43
2023-01-21T16:33:39.376Z,13.75
2023-01-21T16:36:07.337Z,13.00
2023-01-21T16:38:33.778Z,14.18
2023-01-21T16:41:00.106Z,11.85
2023-01-21T16:43:26.452Z,12.20
2023-01-21T16:45:53.180Z,10.00
2023-01-21T16:48:19.569Z,11.35
2023-01-21T16:50:45.954Z,9.65
2023-01-21T16:53:12.485Z,8.50
2023-01-21T16:55:38.908Z,8.52
2023-01-21T16:58:05.527Z,8.18
2023-01-21T17:00:31.871Z,8.05
2023-01-21T17:02:58.265Z,8.25
2023-01-21T17:05:24.655Z,6.55
2023-01-21T17:07:51.125Z,7.07
2023-01-21T17:10:17.558Z,8.25
2023-01-21T17:12:43.941Z,6.87
2023-01-21T17:15:10.273Z,7.57
2023-01-21T17:17:36.583Z,6.53
2023-01-21T17:20:02.923Z,6.53
2023-01-21T17:22:29.223Z,6.62
2023-01-21T17:24:55.581Z,6.30
2023-01-21T17:27:23.412Z,6.10
2023-01-21T17:29:49.740Z,6.68
2023-01-21T17:32:16.064Z,6.60
2023-01-21T17:34:42.407Z,5.25
2023-01-21T17:37:08.744Z,6.30
2023-01-21T17:39:35.057Z,5.53
2023-01-21T17:42:01.363Z,5.35
2023-01-21T17:44:29.132Z,5.68
2023-01-21T17:46:55.442Z,5.60
2023-01-21T17:49:21.770Z,5.78
2023-01-21T17:51:49.973Z,4.62
2023-01-21T17:54:16.502Z,5.00
2023-01-21T17:56:43.002Z,4.53
2023-01-21T17:59:09.337Z,4.28
2023-01-21T18:01:35.728Z,4.20
2023-01-21T18:04:02.094Z,4.53
2023-01-21T18:06:28.416Z,3.53
2023-01-21T18:08:54.809Z,3.72
2023-01-21T18:11:21.193Z,3.17
2023-01-21T18:13:47.582Z,4.15
2023-01-21T18:16:14.003Z,3.53
2023-01-21T18:18:40.379Z,3.08
2023-01-21T18:21:06.767Z,3.83
2023-01-21T18:23:33.094Z,3.00
2023-01-21T18:25:59.481Z,3.30
2023-01-21T18:28:26.127Z,5.03
2023-01-21T18:30:52.523Z,2.30
2023-01-21T18:33:18.884Z,3.58
2023-01-21T18:35:45.214Z,4.07
2023-01-21T18:40:43.041Z,4.25
2023-01-21T18:43:09.356Z,4.82
2023-01-21T18:45:35.764Z,4.75
2023-01-21T18:48:02.085Z,3.83
2023-01-21T18:50:28.427Z,3.30
2023-01-21T18:52:54.727Z,4.40
2023-01-21T18:55:21.101Z,3.90
2023-01-21T18:57:47.588Z,3.58
2023-01-21T19:00:13.981Z,3.50
2023-01-21T19:02:40.379Z,4.95
2023-01-21T19:05:06.733Z,4.53
2023-01-21T19:07:33.995Z,4.05
2023-01-21T19:10:00.307Z,4.95
2023-01-21T19:12:26.823Z,5.22
2023-01-21T19:14:53.158Z,4.25
2023-01-21T19:17:19.526Z,4.10
2023-01-21T19:19:45.845Z,3.47
2023-01-21T19:22:12.274Z,2.97
2023-01-21T19:24:38.590Z,2.83
2023-01-21T19:27:06.343Z,3.10
2023-01-21T19:29:32.675Z,2.95
2023-01-21T19:31:59.197Z,3.37
2023-01-21T19:34:26.817Z,3.40
2023-01-21T19:36:53.246Z,2.65
2023-01-21T19:39:19.570Z,2.35
2023-01-21T19:41:45.896Z,2.50
2023-01-21T19:44:12.220Z,3.75
2023-01-21T19:46:38.654Z,3.42
2023-01-21T19:49:05.006Z,2.72
2023-01-21T19:51:32.188Z,3.25
2023-01-21T19:53:58.760Z,2.97
2023-01-21T19:56:25.075Z,3.92
2023-01-21T19:58:51.451Z,2.58
2023-01-21T20:01:17.885Z,3.15
2023-01-21T20:03:58.713Z,3.40
2023-01-21T20:06:25.867Z,4.50
2023-01-21T20:08:52.200Z,3.62
2023-01-21T20:11:18.580Z,4.22
2023-01-21T20:13:44.939Z,3.22
2023-01-21T20:16:11.307Z,4.18
2023-01-21T20:18:37.692Z,3.42
2023-01-21T20:21:04.190Z,3.55
2023-01-21T20:23:32.717Z,3.58
2023-01-21T20:25:59.207Z,3.50
2023-01-21T20:28:25.507Z,3.00
2023-01-21T20:30:51.845Z,3.00
2023-01-21T20:33:18.198Z,3.90
2023-01-21T20:35:44.557Z,5.95
2023-01-21T20:38:11.481Z,4.22
2023-01-21T20:40:37.836Z,4.03
2023-01-21T20:43:04.165Z,3.87
2023-01-21T20:45:30.533Z,4.82
2023-01-21T20:47:56.922Z,4.53
2023-01-21T20:50:23.300Z,5.15
2023-01-21T20:52:49.698Z,4.72
2023-01-21T20:55:17.860Z,5.15
2023-01-21T20:57:46.294Z,4.40
2023-01-21T21:00:12.645Z,4.62
2023-01-21T21:02:38.968Z,4.03
2023-01-21T21:05:05.304Z,3.78
2023-01-21T21:07:31.608Z,4.43
2023-01-21T21:10:00.130Z,4.35
2023-01-21T21:12:26.473Z,3.70
2023-01-21T21:14:52.850Z,3.58
2023-01-21T21:17:19.204Z,3.25
2023-01-21T21:19:45.548Z,4.12
2023-01-21T21:22:12.007Z,5.15
2023-01-21T21:24:38.338Z,4.20
2023-01-21T21:27:04.864Z,3.78
2023-01-21T21:29:31.213Z,4.40
2023-01-21T21:31:59.134Z,4.00
2023-01-21T21:34:27.677Z,4.37
2023-01-21T21:36:54.029Z,5.20
2023-01-21T21:39:22.063Z,4.07
2023-01-21T21:42:07.497Z,4.68
2023-01-21T21:44:33.823Z,4.07
2023-01-21T21:47:19.059Z,4.03
2023-01-21T21:49:45.373Z,3.67
2023-01-21T21:52:17.391Z,4.85
2023-01-21T21:54:43.736Z,4.55
2023-01-21T21:57:10.102Z,5.82
2023-01-21T21:59:36.399Z,4.50
2023-01-21T22:02:06.548Z,3.55
2023-01-21T22:04:33.030Z,5.95
2023-01-21T22:06:59.401Z,4.75
2023-01-21T22:09:25.734Z,3.53
2023-01-21T22:11:52.143Z,5.53
2023-01-21T22:14:18.493Z,3.62
2023-01-21T22:16:45.034Z,3.67
2023-01-21T22:19:11.376Z,4.25
2023-01-21T22:21:37.715Z,6.07
2023-01-21T22:24:04.061Z,4.93
2023-01-21T22:26:30.550Z,4.22
2023-01-21T22:28:56.991Z,4.75
2023-01-21T22:31:23.562Z,4.28
2023-01-21T22:33:49.953Z,4.40
2023-01-21T22:36:16.275Z,4.87
2023-01-21T22:38:42.605Z,4.20
2023-01-21T22:41:08.953Z,5.12
2023-01-21T22:43:35.281Z,3.97
2023-01-21T22:46:01.629Z,5.32
2023-01-21T22:48:28.104Z,4.20
2023-01-21T22:50:54.501Z,3.92
2023-01-21T22:53:20.957Z,4.12
2023-01-21T22:55:47.281Z,3.62
2023-01-21T22:58:13.589Z,4.07
2023-01-21T23:00:39.930Z,3.53
2023-01-21T23:03:06.283Z,4.07
2023-01-21T23:05:32.689Z,4.10
2023-01-21T23:10:26.402Z,4.57
2023-01-21T23:12:52.769Z,4.22
2023-01-21T23:15:19.081Z,4.50
2023-01-21T23:17:45.389Z,3.83
2023-01-21T23:20:11.714Z,4.30
2023-01-21T23:22:38.024Z,4.12
2023-01-21T23:25:04.344Z,5.05
2023-01-21T23:27:30.671Z,3.92
2023-01-21T23:29:56.964Z,4.45
2023-01-21T23:32:23.279Z,4.53
2023-01-21T23:34:49.641Z,4.03
2023-01-21T23:37:15.951Z,4.97
2023-01-21T23:39:43.141Z,4.22
2023-01-21T23:42:09.498Z,4.78
2023-01-21T23:44:35.830Z,4.28
2023-01-21T23:47:02.150Z,4.80
2023-01-21T23:49:28.524Z,5.68
2023-01-21T23:51:54.829Z,4.75
2023-01-21T23:54:21.184Z,5.62
2023-01-21T23:56:47.500Z,4.57
2023-01-21T23:59:13.856Z,4.50
